Accueil
METAR-TAF:

METAR-TAF

Aéroports :

Vientiane, Laos

Aéroport international de Wattay

latitude: 17-57N, longitude: 102-34E, altitude: 171 m

Observation

Le bulletin a été fait il y a 24 minutes, à 15:00 UTC
Vent calme
Température 27°C
Humidité 94%
Pression 1009 hPa
Visibilité: 4000 m
Quelques nuages à une hauteur de 5000 ft
brume

METAR: VLVT 191500Z 00000KT 4000 BR FEW050 27/26 Q1009 NOSIG

Heure: 22:24 (15:24 UTC)

Prévision

Le bulletin a été fait il y a 4 heures et 24 minutes, à 11:00 UTC
Prévision valable du 19 à 12 UTC au 20 à 12 UTC
Vent 4 kt de nord
Visibilité 10 km ou plus
Nuages épars à une hauteur de 2000 ft
Nuages épars à une hauteur de 20000 ft
Temporairement
du 19 à 14 UTC au 19 à 20 UTC
Visibilité: 4000 m
Quelques nuages à une hauteur de 5000 ft
Quelques nuages à une hauteur de 20000 ft
brume

TAF: VLVT 191100Z 1912/2012 36004KT 9999 SCT020 SCT200 TEMPO 1914/1920 4000 BR FEW050 FEW200

Observations et prévisions météorologiques de plus de 4000 aéroports (messages METAR et TAF).

Les stations disponibles sont représentées par des disques jaunes et rouges sur la carte.

Passer la souris dessus pour voir le nom de la station.

Cliquer dessus pour voir les observations et prévisions météorologiques.

Pour changer de carte: cliquez sur les boutons verts avec une croix noire pour zoomer, sur le bouton vert avec un tiret pour effectuer un zoom arrière, ou sur les flèches vertes pour les cartes adjacentes.


METAR-TAF: